createdAt,value
2022-12-25T00:01:17.053Z,23.47
2022-12-25T00:03:51.846Z,23.37
2022-12-25T00:06:21.723Z,23.77
2022-12-25T00:08:51.836Z,23.77
2022-12-25T00:11:21.540Z,25.90
2022-12-25T00:13:50.838Z,25.87
2022-12-25T00:16:22.492Z,24.90
2022-12-25T00:18:53.056Z,25.37
2022-12-25T00:21:22.848Z,24.70
2022-12-25T00:23:56.158Z,21.60
2022-12-25T00:26:26.984Z,22.90
2022-12-25T00:28:58.254Z,22.73
2022-12-25T00:31:27.808Z,21.10
2022-12-25T00:33:56.863Z,21.57
2022-12-25T00:36:25.999Z,22.17
2022-12-25T00:38:55.073Z,20.23
2022-12-25T00:41:39.421Z,22.40
2022-12-25T00:44:09.176Z,21.53
2022-12-25T00:46:39.717Z,22.67
2022-12-25T00:49:09.502Z,22.30
2022-12-25T00:51:39.332Z,24.33
2022-12-25T00:54:08.403Z,23.83
2022-12-25T00:56:39.492Z,24.13
2022-12-25T00:59:09.177Z,24.00
2022-12-25T01:01:40.297Z,23.60
2022-12-25T01:04:10.474Z,24.00
2022-12-25T01:06:40.792Z,23.97
2022-12-25T01:09:28.087Z,24.13
2022-12-25T01:11:57.142Z,23.27
2022-12-25T01:14:27.084Z,24.50
2022-12-25T01:16:56.453Z,24.27
2022-12-25T01:19:26.927Z,23.43
2022-12-25T01:21:57.146Z,22.90
2022-12-25T01:24:26.979Z,21.77
2022-12-25T01:26:56.670Z,21.20
2022-12-25T01:29:26.528Z,22.10
2022-12-25T01:31:56.795Z,23.53
2022-12-25T01:34:27.697Z,20.63
2022-12-25T01:36:57.458Z,19.33
2022-12-25T01:39:26.772Z,18.83
2022-12-25T01:41:58.907Z,18.90
2022-12-25T01:45:04.420Z,17.70
2022-12-25T01:47:33.814Z,17.20
2022-12-25T01:50:04.266Z,18.53
2022-12-25T01:52:33.813Z,18.57
2022-12-25T01:55:04.234Z,18.33
2022-12-25T01:57:38.251Z,17.93
2022-12-25T02:00:10.975Z,17.77
2022-12-25T02:02:41.542Z,17.47
2022-12-25T02:05:18.155Z,17.47
2022-12-25T02:07:48.566Z,17.40
2022-12-25T02:10:18.566Z,16.70
2022-12-25T02:12:48.973Z,15.80
2022-12-25T02:15:27.130Z,17.10
2022-12-25T02:18:07.377Z,17.93
2022-12-25T02:20:56.778Z,16.97
2022-12-25T02:24:09.381Z,16.67
2022-12-25T02:27:02.831Z,17.00
2022-12-25T02:29:43.508Z,17.33
2022-12-25T02:32:26.092Z,18.00
2022-12-25T02:35:02.407Z,17.27
2022-12-25T02:37:38.736Z,17.13
2022-12-25T02:40:15.964Z,18.20
2022-12-25T02:43:09.280Z,18.23
2022-12-25T02:46:00.583Z,19.23
2022-12-25T02:48:52.673Z,18.37
2022-12-25T02:51:43.560Z,17.87
2022-12-25T02:54:34.694Z,17.47
2022-12-25T02:57:26.778Z,17.90
2022-12-25T03:00:16.654Z,18.67
2022-12-25T03:03:06.015Z,18.70
2022-12-25T03:05:58.462Z,18.93
2022-12-25T03:08:33.854Z,18.60
2022-12-25T03:11:23.736Z,19.30
2022-12-25T03:14:18.461Z,20.13
2022-12-25T03:16:50.276Z,19.33
2022-12-25T03:19:39.642Z,20.23
2022-12-25T03:22:31.838Z,19.37
2022-12-25T03:25:21.696Z,20.47
2022-12-25T03:27:53.332Z,20.10
2022-12-25T03:30:42.080Z,20.30
2022-12-25T03:33:43.720Z,20.50
2022-12-25T03:36:14.144Z,21.67
2022-12-25T03:39:10.852Z,20.63
2022-12-25T03:42:04.825Z,21.13
2022-12-25T03:45:00.145Z,22.37
2022-12-25T03:48:01.144Z,22.70
2022-12-25T03:50:54.114Z,21.27
2022-12-25T03:53:48.810Z,21.00
2022-12-25T03:56:35.196Z,23.20
2022-12-25T03:59:24.064Z,21.17
2022-12-25T04:02:23.532Z,20.80
2022-12-25T04:05:11.337Z,22.03
2022-12-25T04:07:58.869Z,21.67
2022-12-25T04:10:46.155Z,20.13
2022-12-25T04:13:33.881Z,20.43
2022-12-25T04:16:22.302Z,20.50
2022-12-25T04:19:24.498Z,21.93
2022-12-25T04:22:11.451Z,21.50
2022-12-25T04:24:59.583Z,22.77
2022-12-25T04:27:46.925Z,21.57
2022-12-25T04:30:34.366Z,19.73
2022-12-25T04:33:21.373Z,20.93
2022-12-25T04:36:08.914Z,21.90
2022-12-25T04:38:39.636Z,22.13
2022-12-25T04:41:10.700Z,20.13
2022-12-25T04:43:40.969Z,19.90
2022-12-25T04:46:28.185Z,20.47
2022-12-25T04:48:58.100Z,21.63
2022-12-25T04:51:27.563Z,21.83
2022-12-25T04:53:56.911Z,24.17
2022-12-25T04:56:26.366Z,24.60
2022-12-25T04:58:55.815Z,25.27
2022-12-25T05:01:26.926Z,23.93
2022-12-25T05:04:07.518Z,23.80
2022-12-25T05:06:36.971Z,23.63
2022-12-25T05:09:06.330Z,22.80
2022-12-25T05:11:35.685Z,22.77
2022-12-25T05:14:05.456Z,23.37
2022-12-25T05:16:36.611Z,21.50
2022-12-25T05:19:05.894Z,21.90
2022-12-25T05:21:35.232Z,22.13
2022-12-25T05:24:04.830Z,21.87
2022-12-25T05:26:34.169Z,20.40
2022-12-25T05:29:03.393Z,21.73
2022-12-25T05:31:37.880Z,22.70
2022-12-25T05:34:11.215Z,20.87
2022-12-25T05:36:41.346Z,21.67
2022-12-25T05:39:10.463Z,21.80
2022-12-25T05:41:41.597Z,22.60
2022-12-25T05:44:10.683Z,22.63
2022-12-25T05:46:41.826Z,20.97
2022-12-25T05:49:11.328Z,22.00
2022-12-25T05:51:41.862Z,20.93
2022-12-25T05:54:11.762Z,21.60
2022-12-25T05:56:42.230Z,22.30
2022-12-25T05:59:11.510Z,25.10
2022-12-25T06:01:41.777Z,24.70
2022-12-25T06:04:12.898Z,24.20
2022-12-25T06:06:42.307Z,22.90
2022-12-25T06:09:13.139Z,25.23
2022-12-25T06:11:42.632Z,24.23
2022-12-25T06:14:13.596Z,23.50
2022-12-25T06:16:43.156Z,24.93
2022-12-25T06:19:13.207Z,23.43
2022-12-25T06:21:42.653Z,24.03
2022-12-25T06:24:16.219Z,23.07
2022-12-25T06:26:50.617Z,22.33
2022-12-25T06:29:19.901Z,24.60
2022-12-25T06:31:49.495Z,24.43
2022-12-25T06:34:18.848Z,26.07
2022-12-25T06:36:48.198Z,26.93
2022-12-25T06:39:17.351Z,30.63
2022-12-25T06:41:46.422Z,33.53
2022-12-25T06:44:15.720Z,30.87
2022-12-25T06:46:45.025Z,33.17
2022-12-25T06:49:14.214Z,33.87
2022-12-25T06:51:43.405Z,35.47
2022-12-25T06:54:12.430Z,30.20
2022-12-25T06:56:42.226Z,30.47
2022-12-25T06:59:12.393Z,33.13
2022-12-25T07:01:50.309Z,28.43
2022-12-25T07:04:24.475Z,29.53
2022-12-25T07:06:53.791Z,27.80
2022-12-25T07:09:22.887Z,31.37
2022-12-25T07:11:53.002Z,35.30
2022-12-25T07:14:24.698Z,34.00
2022-12-25T07:16:53.944Z,28.90
2022-12-25T07:19:23.227Z,27.60
2022-12-25T07:21:52.296Z,28.80
2022-12-25T07:24:22.163Z,28.30
2022-12-25T07:26:52.204Z,28.07
2022-12-25T07:29:21.708Z,25.47
2022-12-25T07:31:50.777Z,27.47
2022-12-25T07:34:20.158Z,25.57
2022-12-25T07:36:49.425Z,26.50
2022-12-25T07:39:18.405Z,26.00
2022-12-25T07:41:47.459Z,27.67
2022-12-25T07:44:16.948Z,26.63
2022-12-25T07:46:46.250Z,26.53
2022-12-25T07:49:15.760Z,26.33
2022-12-25T07:51:45.011Z,25.93
2022-12-25T07:54:14.161Z,26.77
2022-12-25T07:56:43.268Z,26.80
2022-12-25T07:59:12.471Z,27.67
2022-12-25T08:01:41.978Z,26.57
2022-12-25T08:04:11.665Z,27.17
2022-12-25T08:06:42.313Z,27.03
2022-12-25T08:09:13.391Z,25.60
2022-12-25T08:11:46.625Z,28.97
2022-12-25T08:14:15.723Z,36.60
2022-12-25T08:16:46.208Z,30.00
2022-12-25T08:19:15.255Z,29.67
2022-12-25T08:21:44.855Z,29.20
2022-12-25T08:24:13.847Z,26.33
2022-12-25T08:26:42.865Z,30.23
2022-12-25T08:29:11.812Z,26.23
2022-12-25T08:31:46.483Z,26.83
2022-12-25T08:34:15.817Z,26.93
2022-12-25T08:36:45.063Z,30.47
2022-12-25T08:39:14.361Z,25.73
2022-12-25T08:41:43.282Z,27.63
2022-12-25T08:44:12.867Z,27.87
2022-12-25T08:46:42.222Z,25.03
2022-12-25T08:49:11.239Z,25.43
2022-12-25T08:51:40.991Z,28.60
2022-12-25T08:54:10.049Z,26.37
2022-12-25T08:56:39.947Z,28.07
2022-12-25T08:59:08.804Z,29.23
2022-12-25T09:01:39.212Z,24.33
2022-12-25T09:04:08.506Z,26.83
2022-12-25T09:06:37.435Z,24.27
2022-12-25T09:09:07.214Z,25.40
2022-12-25T09:11:36.790Z,25.47
2022-12-25T09:14:06.021Z,25.23
2022-12-25T09:16:36.748Z,26.57
2022-12-25T09:19:05.788Z,25.43
2022-12-25T09:21:36.159Z,24.17
2022-12-25T09:24:05.573Z,24.30
2022-12-25T09:26:34.805Z,25.67
2022-12-25T09:29:03.755Z,25.00
2022-12-25T09:31:36.230Z,25.60
2022-12-25T09:34:05.326Z,25.07
2022-12-25T09:36:37.429Z,24.07
2022-12-25T09:39:07.570Z,26.13
2022-12-25T09:41:46.782Z,24.63
2022-12-25T09:44:21.196Z,24.27
2022-12-25T09:49:26.425Z,21.40
2022-12-25T09:52:00.079Z,24.17
2022-12-25T09:54:41.982Z,23.05
2022-12-25T09:57:14.220Z,23.53
2022-12-25T09:59:47.070Z,23.97
2022-12-25T10:02:36.412Z,24.17
2022-12-25T10:05:20.768Z,23.30
2022-12-25T10:08:02.809Z,24.30
2022-12-25T10:10:50.063Z,24.17
2022-12-25T10:13:44.036Z,22.67
2022-12-25T10:16:24.216Z,24.07
2022-12-25T10:19:10.032Z,23.23
2022-12-25T10:21:41.292Z,20.87
2022-12-25T10:24:31.934Z,23.90
2022-12-25T10:27:05.002Z,21.93
2022-12-25T10:29:35.699Z,22.47
2022-12-25T10:32:05.351Z,22.00
2022-12-25T10:34:35.462Z,21.97
2022-12-25T10:37:04.343Z,21.60
2022-12-25T10:39:33.407Z,18.70
2022-12-25T10:42:18.452Z,19.03
2022-12-25T10:44:56.790Z,18.37
2022-12-25T10:47:29.604Z,18.63
2022-12-25T10:49:59.613Z,16.77
2022-12-25T10:52:30.050Z,17.17
2022-12-25T10:54:58.941Z,16.93
2022-12-25T10:57:29.274Z,16.90
2022-12-25T10:59:58.249Z,20.13
2022-12-25T11:02:29.657Z,19.57
2022-12-25T11:05:05.028Z,18.23
2022-12-25T11:07:53.321Z,20.83
2022-12-25T11:10:25.065Z,19.33
2022-12-25T11:12:54.731Z,18.30
2022-12-25T11:15:37.189Z,17.67
2022-12-25T11:18:20.226Z,19.23
2022-12-25T11:20:51.779Z,19.67
2022-12-25T11:23:22.683Z,19.83
2022-12-25T11:25:59.029Z,19.33
2022-12-25T11:28:30.946Z,20.30
2022-12-25T11:31:05.749Z,19.00
2022-12-25T11:33:37.354Z,19.97
2022-12-25T11:36:16.185Z,20.53
2022-12-25T11:38:45.616Z,18.63
2022-12-25T11:41:20.005Z,18.57
2022-12-25T11:43:55.696Z,21.47
2022-12-25T11:46:34.473Z,19.80
2022-12-25T11:49:09.652Z,23.20
2022-12-25T11:51:44.087Z,22.73
2022-12-25T11:54:22.305Z,21.97
2022-12-25T11:56:51.809Z,22.43
2022-12-25T11:59:27.164Z,23.23
2022-12-25T12:02:01.889Z,23.17
2022-12-25T12:04:42.424Z,22.50
2022-12-25T12:07:21.816Z,22.30
2022-12-25T12:09:56.947Z,21.80
2022-12-25T12:12:34.218Z,21.00
2022-12-25T12:15:14.759Z,21.03
2022-12-25T12:17:43.745Z,22.47
2022-12-25T12:20:26.712Z,21.70
2022-12-25T12:22:56.389Z,22.87
2022-12-25T12:25:26.349Z,23.30
2022-12-25T12:28:04.474Z,23.37
2022-12-25T12:30:35.996Z,23.17
2022-12-25T12:33:07.013Z,22.90
2022-12-25T12:35:38.619Z,22.67
2022-12-25T12:38:14.015Z,22.37
2022-12-25T12:40:56.818Z,25.10
2022-12-25T12:43:35.139Z,24.23
2022-12-25T12:46:13.357Z,25.27
2022-12-25T12:48:45.005Z,25.97
2022-12-25T12:51:30.316Z,24.80
2022-12-25T12:54:17.799Z,26.47
2022-12-25T12:56:57.380Z,26.60
2022-12-25T12:59:39.191Z,28.13
2022-12-25T13:02:30.753Z,27.43
2022-12-25T13:05:03.937Z,26.63
2022-12-25T13:07:50.401Z,27.00
2022-12-25T13:10:27.374Z,27.23
2022-12-25T13:13:01.040Z,29.73
2022-12-25T13:15:34.968Z,51.30
2022-12-25T13:20:45.252Z,30.27
2022-12-25T13:23:23.856Z,30.17
2022-12-25T13:25:55.038Z,28.87
2022-12-25T13:28:29.068Z,30.93
2022-12-25T13:31:07.223Z,30.35
2022-12-25T13:33:38.514Z,32.33
2022-12-25T13:36:12.585Z,33.00
2022-12-25T13:41:37.712Z,32.13
2022-12-25T13:44:18.377Z,32.80
2022-12-25T13:46:48.178Z,33.97
2022-12-25T13:49:20.274Z,35.00
2022-12-25T13:51:50.179Z,32.80
2022-12-25T13:54:19.980Z,33.13
2022-12-25T13:56:53.244Z,33.60
2022-12-25T13:59:25.739Z,32.30
2022-12-25T14:01:57.398Z,34.10
2022-12-25T14:04:26.870Z,30.17
2022-12-25T14:06:56.149Z,32.00
2022-12-25T14:09:25.494Z,35.07
2022-12-25T14:11:54.718Z,36.13
2022-12-25T14:14:26.070Z,35.43
2022-12-25T14:16:57.739Z,35.73
2022-12-25T14:19:29.797Z,35.60
2022-12-25T14:22:03.399Z,34.63
2022-12-25T14:24:34.155Z,33.85
2022-12-25T14:27:05.990Z,32.93
2022-12-25T14:29:40.036Z,33.57
2022-12-25T14:32:15.019Z,32.20
2022-12-25T14:34:50.843Z,31.73
2022-12-25T14:37:23.534Z,33.80
2022-12-25T14:39:58.768Z,34.47
2022-12-25T14:42:30.811Z,36.20
2022-12-25T14:45:03.382Z,42.57
2022-12-25T14:47:39.636Z,44.03
2022-12-25T14:50:25.028Z,43.17
2022-12-25T14:52:55.408Z,42.27
2022-12-25T14:55:27.105Z,43.13
2022-12-25T14:57:59.811Z,39.73
2022-12-25T15:00:32.310Z,41.53
2022-12-25T15:03:03.643Z,42.90
2022-12-25T15:05:37.933Z,40.83
2022-12-25T15:08:23.192Z,39.33
2022-12-25T15:11:00.510Z,38.17
2022-12-25T15:13:32.315Z,40.20
2022-12-25T15:16:06.378Z,38.47
2022-12-25T15:18:39.762Z,38.00
2022-12-25T15:21:15.747Z,36.67
2022-12-25T15:23:47.963Z,38.40
2022-12-25T15:26:17.080Z,36.37
2022-12-25T15:28:46.603Z,37.03
2022-12-25T15:31:21.950Z,39.40
2022-12-25T15:33:51.962Z,40.33
2022-12-25T15:36:21.101Z,41.10
2022-12-25T15:38:50.369Z,42.17
2022-12-25T15:41:41.054Z,41.77
2022-12-25T15:44:16.951Z,44.20
2022-12-25T15:46:46.940Z,44.20
2022-12-25T15:49:17.005Z,46.30
2022-12-25T15:51:46.590Z,43.30
2022-12-25T15:54:15.967Z,44.97
2022-12-25T15:56:47.294Z,43.47
2022-12-25T15:59:17.877Z,41.40
2022-12-25T16:01:51.184Z,45.20
2022-12-25T16:04:22.375Z,44.67
2022-12-25T16:06:52.225Z,44.00
2022-12-25T16:09:21.918Z,43.20
2022-12-25T16:11:51.222Z,42.77
2022-12-25T16:14:21.273Z,42.13
2022-12-25T16:16:50.406Z,42.30
2022-12-25T16:19:19.682Z,42.63
2022-12-25T16:21:50.642Z,41.67
2022-12-25T16:24:19.871Z,42.90
2022-12-25T16:26:50.772Z,41.37
2022-12-25T16:29:20.033Z,50.83
2022-12-25T16:31:49.047Z,47.73
2022-12-25T16:34:18.027Z,44.73
2022-12-25T16:36:48.000Z,43.63
2022-12-25T16:39:16.847Z,43.80
2022-12-25T16:41:45.977Z,43.57
2022-12-25T16:44:15.165Z,45.27
2022-12-25T16:46:47.043Z,43.70
2022-12-25T16:49:16.385Z,41.87
2022-12-25T16:51:47.889Z,39.97
2022-12-25T16:54:17.138Z,42.53
2022-12-25T16:56:46.237Z,39.10
2022-12-25T16:59:15.257Z,37.83
2022-12-25T17:01:45.408Z,39.30
2022-12-25T17:04:14.738Z,41.57
2022-12-25T17:06:46.359Z,41.27
2022-12-25T17:09:15.417Z,39.70
2022-12-25T17:11:46.885Z,41.67
2022-12-25T17:14:15.980Z,42.63
2022-12-25T17:16:47.985Z,41.67
2022-12-25T17:19:19.849Z,40.60
2022-12-25T17:21:49.509Z,38.47
2022-12-25T17:24:21.800Z,44.63
2022-12-25T17:26:50.755Z,45.20
2022-12-25T17:29:22.404Z,39.57
2022-12-25T17:31:52.283Z,39.20
2022-12-25T17:34:21.524Z,43.43
2022-12-25T17:36:50.567Z,43.60
2022-12-25T17:39:19.631Z,46.47
2022-12-25T17:41:50.531Z,45.53
2022-12-25T17:44:20.726Z,41.07
2022-12-25T17:46:50.527Z,44.73
2022-12-25T17:49:21.732Z,42.83
2022-12-25T17:51:50.695Z,45.97
2022-12-25T17:54:20.072Z,41.40
2022-12-25T17:56:50.175Z,41.57
2022-12-25T17:59:23.228Z,39.20
2022-12-25T18:01:52.623Z,42.20
2022-12-25T18:04:25.600Z,37.03
2022-12-25T18:06:54.795Z,41.90
2022-12-25T18:09:23.624Z,40.23
2022-12-25T18:11:52.615Z,36.43
2022-12-25T18:14:21.680Z,37.53
2022-12-25T18:16:50.726Z,38.93
2022-12-25T18:19:22.586Z,34.97
2022-12-25T18:21:51.757Z,39.07
2022-12-25T18:24:20.657Z,39.03
2022-12-25T18:26:49.745Z,43.17
2022-12-25T18:29:19.443Z,35.17
2022-12-25T18:31:48.534Z,33.97
2022-12-25T18:34:17.684Z,34.50
2022-12-25T18:36:47.927Z,31.07
2022-12-25T18:39:17.025Z,30.73
2022-12-25T18:42:11.141Z,32.43
2022-12-25T18:44:59.805Z,32.65
2022-12-25T18:47:28.999Z,32.57
2022-12-25T18:49:58.280Z,31.87
2022-12-25T18:52:47.613Z,36.93
2022-12-25T18:55:19.742Z,32.10
2022-12-25T19:00:46.446Z,33.07
2022-12-25T19:03:23.641Z,34.47
2022-12-25T19:05:55.387Z,33.60
2022-12-25T19:08:36.743Z,33.17
2022-12-25T19:11:21.441Z,30.10
2022-12-25T19:13:51.672Z,30.47
2022-12-25T19:16:20.713Z,29.27
2022-12-25T19:18:49.881Z,31.83
2022-12-25T19:21:19.816Z,30.83
2022-12-25T19:23:48.792Z,29.70
2022-12-25T19:26:18.355Z,33.30
2022-12-25T19:28:48.435Z,29.80
2022-12-25T19:31:18.058Z,31.53
2022-12-25T19:33:48.347Z,29.87
2022-12-25T19:36:17.773Z,29.60
2022-12-25T19:38:49.326Z,31.27
2022-12-25T19:41:20.510Z,29.27
2022-12-25T19:43:51.895Z,29.90
2022-12-25T19:46:22.834Z,28.53
2022-12-25T19:48:52.485Z,29.47
2022-12-25T19:51:25.262Z,27.63
2022-12-25T19:53:57.565Z,28.27
2022-12-25T19:56:30.699Z,30.77
2022-12-25T19:59:00.696Z,30.92
2022-12-25T20:01:35.896Z,28.60
2022-12-25T20:04:07.481Z,28.87
2022-12-25T20:06:38.842Z,29.93
2022-12-25T20:09:11.257Z,29.20
2022-12-25T20:11:41.395Z,25.27
2022-12-25T20:14:13.357Z,28.00
2022-12-25T20:16:44.446Z,28.93
2022-12-25T20:19:14.445Z,26.67
2022-12-25T20:21:43.618Z,27.70
2022-12-25T20:24:13.387Z,28.13
2022-12-25T20:26:45.351Z,27.40
2022-12-25T20:29:17.846Z,28.13
2022-12-25T20:31:49.387Z,26.27
2022-12-25T20:34:18.625Z,29.23
2022-12-25T20:36:50.972Z,27.10
2022-12-25T20:39:20.411Z,29.13
2022-12-25T20:41:49.439Z,28.17
2022-12-25T20:44:19.125Z,27.07
2022-12-25T20:46:48.687Z,28.23
2022-12-25T20:49:18.124Z,27.10
2022-12-25T20:51:47.520Z,26.20
2022-12-25T20:54:16.901Z,26.67
2022-12-25T20:56:48.902Z,26.73
2022-12-25T20:59:18.182Z,27.37
2022-12-25T21:01:49.991Z,27.40
2022-12-25T21:04:19.248Z,27.40
2022-12-25T21:06:48.625Z,26.50
2022-12-25T21:09:17.869Z,28.03
2022-12-25T21:12:00.442Z,26.53
2022-12-25T21:14:29.945Z,28.80
2022-12-25T21:17:00.885Z,26.43
2022-12-25T21:19:30.229Z,31.13
2022-12-25T21:22:01.369Z,28.70
2022-12-25T21:24:31.769Z,26.23
2022-12-25T21:27:01.193Z,23.90
2022-12-25T21:29:31.658Z,29.70
2022-12-25T21:32:19.258Z,31.17
2022-12-25T21:34:49.405Z,28.60
2022-12-25T21:37:21.531Z,30.13
2022-12-25T21:39:52.185Z,29.13
2022-12-25T21:42:21.751Z,29.57
2022-12-25T21:44:56.281Z,30.90
2022-12-25T21:47:25.997Z,33.43
2022-12-25T21:50:38.973Z,30.77
2022-12-25T21:53:17.321Z,32.03
2022-12-25T21:55:57.319Z,33.70
2022-12-25T21:58:26.883Z,30.67
2022-12-25T22:01:01.445Z,30.10
2022-12-25T22:03:32.582Z,30.83
2022-12-25T22:06:22.449Z,30.47
2022-12-25T22:08:56.972Z,30.20
2022-12-25T22:14:54.231Z,30.33
2022-12-25T22:17:44.977Z,28.33
2022-12-25T22:20:17.720Z,31.13
2022-12-25T22:22:48.358Z,25.93
2022-12-25T22:25:19.150Z,28.37
2022-12-25T22:27:50.854Z,29.60
2022-12-25T22:30:23.631Z,30.43
2022-12-25T22:32:54.669Z,28.00
2022-12-25T22:35:24.411Z,30.87
2022-12-25T22:37:54.839Z,29.20
2022-12-25T22:40:25.155Z,27.93
2022-12-25T22:42:55.746Z,28.83
2022-12-25T22:45:25.303Z,29.43
2022-12-25T22:47:54.914Z,29.57
2022-12-25T22:50:25.207Z,29.00
2022-12-25T22:52:55.208Z,28.60
2022-12-25T22:55:24.364Z,29.27
2022-12-25T22:57:55.261Z,28.00
2022-12-25T23:00:24.663Z,27.57
2022-12-25T23:02:54.385Z,24.80
2022-12-25T23:05:24.439Z,27.23
2022-12-25T23:07:53.876Z,28.17
2022-12-25T23:10:23.390Z,24.57
2022-12-25T23:13:11.537Z,26.00
2022-12-25T23:15:41.521Z,26.40
2022-12-25T23:18:30.448Z,23.83
2022-12-25T23:21:19.170Z,26.17
2022-12-25T23:24:08.135Z,25.23
2022-12-25T23:26:38.014Z,25.77
2022-12-25T23:29:24.887Z,25.27
2022-12-25T23:31:55.407Z,24.83
2022-12-25T23:34:25.096Z,26.13
2022-12-25T23:36:54.208Z,26.30
2022-12-25T23:39:23.076Z,26.50
2022-12-25T23:41:52.073Z,26.73
2022-12-25T23:44:21.480Z,26.60
2022-12-25T23:46:54.816Z,26.87
2022-12-25T23:49:25.443Z,24.90
2022-12-25T23:51:55.938Z,24.40
2022-12-25T23:54:27.281Z,26.30
2022-12-25T23:56:57.765Z,26.03
2022-12-25T23:59:28.916Z,27.53
